Time;durP1;ratioP1;P1;durP2;ratioP2;P2;SDS_P1;SDS_P2;PMS_P1;PMS_P2;Temp;Humidity;BMP_temperature;BMP_pressure;BME280_temperature;BME280_humidity;BME280_pressure;Samples;Min_cycle;Max_cycle;Signal;HPM_P1;HPM_P2
2022/04/15 00:00:41;;;;;;;16.00;11.20;;;;;;;13.37;74.40;100802.22;5027103;28;20044;-59
2022/04/15 00:03:06;;;;;;;17.60;12.25;;;;;;;13.35;74.63;100801.38;5016124;28;20509;-59
2022/04/15 00:05:40;;;;;;;18.45;12.20;;;;;;;13.25;75.03;100803.41;5024799;28;20109;-58
2022/04/15 00:08:13;;;;;;;16.63;11.05;;;;;;;13.25;74.95;100791.06;5026842;28;20385;-58
2022/04/15 00:10:40;;;;;;;17.05;11.10;;;;;;;13.23;75.47;100792.00;5024554;28;20055;-59
2022/04/15 00:13:08;;;;;;;16.45;10.80;;;;;;;13.15;75.79;100789.53;5031579;28;20045;-59
2022/04/15 00:15:34;;;;;;;15.65;10.63;;;;;;;13.11;76.03;100789.66;5031779;28;20041;-59
2022/04/15 00:18:00;;;;;;;15.95;10.70;;;;;;;13.04;76.22;100789.78;5017328;28;20079;-59
2022/04/15 00:20:29;;;;;;;15.75;10.45;;;;;;;13.04;76.00;100802.97;5014606;28;20041;-59
2022/04/15 00:22:54;;;;;;;14.73;10.23;;;;;;;12.99;76.19;100791.69;5015502;28;20041;-58
2022/04/15 00:25:20;;;;;;;16.27;10.80;;;;;;;12.97;76.59;100788.22;5033287;28;20381;-58
2022/04/15 00:27:45;;;;;;;16.73;11.15;;;;;;;12.97;76.29;100787.38;5021660;28;20498;-58
2022/04/15 00:30:12;;;;;;;14.35;9.98;;;;;;;13.02;75.85;100783.69;5030348;28;20034;-59
2022/04/15 00:32:38;;;;;;;16.13;10.93;;;;;;;12.99;75.86;100790.81;5031820;28;20551;-59
2022/04/15 00:35:04;;;;;;;15.07;10.60;;;;;;;13.00;75.68;100782.84;5030352;28;20030;-58
2022/04/15 00:37:31;;;;;;;15.50;11.02;;;;;;;12.98;75.67;100779.41;5036738;28;20029;-59
2022/04/15 00:39:57;;;;;;;14.98;10.80;;;;;;;12.98;75.54;100778.53;5036938;28;20389;-59
2022/04/15 00:42:23;;;;;;;13.95;10.13;;;;;;;13.04;75.19;100773.97;5034667;28;20058;-59
2022/04/15 00:44:59;;;;;;;16.13;11.25;;;;;;;13.04;74.86;100763.41;5020397;28;20037;-59
2022/04/15 00:47:45;;;;;;;18.80;11.85;;;;;;;13.04;75.06;100767.81;5025329;28;20389;-59
2022/04/15 00:50:11;;;;;;;14.20;10.50;;;;;;;12.96;75.04;100762.72;5017312;28;20490;-59
2022/04/15 00:52:42;;;;;;;14.82;10.77;;;;;;;12.92;75.18;100763.72;5020660;28;20124;-59
2022/04/15 00:55:08;;;;;;;14.20;10.63;;;;;;;12.91;75.34;100766.41;5017437;28;20052;-59
2022/04/15 00:57:40;;;;;;;16.30;10.93;;;;;;;12.89;75.39;100762.97;5028188;28;20037;-58
2022/04/15 01:00:07;;;;;;;16.15;11.48;;;;;;;12.92;75.21;100763.72;5033326;28;20084;-58
2022/04/15 01:02:33;;;;;;;13.98;10.15;;;;;;;12.90;75.35;100756.78;5020323;28;20045;-58
2022/04/15 01:05:02;;;;;;;18.02;12.40;;;;;;;12.92;74.89;100755.81;5029493;28;20033;-58
2022/04/15 01:07:32;;;;;;;17.33;11.15;;;;;;;12.98;74.69;100752.16;5017010;28;20061;-58
2022/04/15 01:09:58;;;;;;;15.55;10.93;;;;;;;12.92;74.71;100757.59;5023504;28;20112;-58
2022/04/15 01:12:28;;;;;;;14.70;10.13;;;;;;;12.79;75.19;100752.63;5023626;28;20125;-58
2022/04/15 01:15:00;;;;;;;15.70;10.77;;;;;;;12.67;75.82;100757.34;5036871;28;20040;-57
2022/04/15 01:17:29;;;;;;;19.17;12.93;;;;;;;12.52;76.52;100754.16;5027799;28;20064;-59
2022/04/15 01:19:56;;;;;;;15.63;11.48;;;;;;;12.46;77.06;100754.31;5022468;28;20117;-58
2022/04/15 01:22:28;;;;;;;17.33;12.13;;;;;;;12.40;76.97;100751.81;5024525;28;20108;-58
2022/04/15 01:24:53;;;;;;;16.13;12.00;;;;;;;12.38;76.94;100751.00;5023525;28;20386;-58
2022/04/15 01:27:38;;;;;;;18.17;11.88;;;;;;;12.36;76.71;100752.78;5035306;28;20473;-58
2022/04/15 01:30:06;;;;;;;16.85;12.55;;;;;;;12.38;76.75;100751.00;5030351;28;20104;-58
2022/04/15 01:32:32;;;;;;;16.38;11.25;;;;;;;12.42;76.53;100754.41;5026770;28;20041;-58
2022/04/15 01:34:58;;;;;;;17.48;11.25;;;;;;;12.45;76.31;100760.50;5025805;28;20030;-58
2022/04/15 01:37:24;;;;;;;15.70;10.70;;;;;;;12.43;76.30;100749.09;5029615;28;20033;-58
2022/04/15 01:39:50;;;;;;;14.65;9.48;;;;;;;12.47;75.96;100753.41;5034192;28;20382;-58
2022/04/15 01:42:17;;;;;;;14.98;9.75;;;;;;;12.49;76.05;100754.25;5021297;28;20100;-58
2022/04/15 01:44:44;;;;;;;12.88;9.77;;;;;;;12.53;75.98;100755.03;5025955;28;20445;-58
2022/04/15 01:47:10;;;;;;;15.57;10.40;;;;;;;12.58;75.69;100753.16;5032630;28;20488;-58
2022/04/15 01:49:36;;;;;;;14.27;9.55;;;;;;;12.60;75.46;100748.69;5018012;28;20069;-58
2022/04/15 01:52:02;;;;;;;12.25;8.77;;;;;;;12.64;75.30;100753.00;5025797;28;20466;-58
2022/04/15 01:54:28;;;;;;;14.55;9.35;;;;;;;12.76;74.78;100746.56;5020969;28;20041;-58
2022/04/15 01:56:54;;;;;;;14.70;10.13;;;;;;;12.87;74.27;100749.78;5023341;28;20033;-58
2022/04/15 01:59:20;;;;;;;13.38;9.13;;;;;;;12.88;74.05;100753.28;5032865;28;20048;-58
2022/04/15 02:01:46;;;;;;;13.88;9.02;;;;;;;13.02;73.52;100751.19;5029612;28;20037;-58
2022/04/15 02:04:11;;;;;;;13.07;9.23;;;;;;;13.10;73.24;100746.56;5024371;28;20052;-58
2022/04/15 02:06:37;;;;;;;14.35;10.48;;;;;;;13.19;72.52;100746.31;5018379;28;20051;-58
2022/04/15 02:09:02;;;;;;;12.25;9.20;;;;;;;13.20;72.35;100736.63;5021440;28;20375;-58
2022/04/15 02:11:28;;;;;;;15.00;9.25;;;;;;;13.13;72.49;100735.09;5017370;28;20121;-58
2022/04/15 02:13:53;;;;;;;12.88;8.75;;;;;;;13.04;72.83;100734.38;5021312;28;20029;-58
2022/04/15 02:16:18;;;;;;;13.60;9.82;;;;;;;13.00;72.99;100735.38;5016614;28;20042;-58
2022/04/15 02:18:44;;;;;;;13.82;9.98;;;;;;;12.91;73.37;100738.25;5020859;28;20033;-58
2022/04/15 02:21:09;;;;;;;13.43;9.38;;;;;;;12.87;73.63;100744.50;5029905;28;20109;-58
2022/04/15 02:23:35;;;;;;;13.43;9.70;;;;;;;12.89;73.76;100750.63;5034801;28;20477;-58
2022/04/15 02:26:00;;;;;;;13.18;9.52;;;;;;;12.85;74.01;100746.34;5033153;28;20442;-58
2022/04/15 02:28:26;;;;;;;13.13;9.70;;;;;;;12.74;74.69;100748.38;5019185;28;20375;-58
2022/04/15 02:30:52;;;;;;;15.13;10.10;;;;;;;12.67;75.07;100757.34;5030989;28;20228;-58
2022/04/15 02:33:18;;;;;;;14.70;10.40;;;;;;;12.60;75.50;100763.66;5033556;28;20385;-58
2022/04/15 02:35:43;;;;;;;15.13;9.57;;;;;;;12.55;75.56;100756.72;5017600;28;20458;-58
2022/04/15 02:38:09;;;;;;;13.95;9.05;;;;;;;12.57;75.47;100756.69;5016366;28;20117;-58
2022/04/15 02:40:34;;;;;;;16.42;10.50;;;;;;;12.50;76.15;100760.38;5019646;28;20049;-58
2022/04/15 02:43:01;;;;;;;16.92;11.65;;;;;;;12.50;76.30;100749.84;5027561;28;20042;-58
2022/04/15 02:45:28;;;;;;;15.27;10.88;;;;;;;12.50;76.14;100755.97;5028015;28;20036;-58
2022/04/15 02:47:54;;;;;;;15.23;10.57;;;;;;;12.41;76.46;100756.19;5018793;28;20381;-58
2022/04/15 02:50:20;;;;;;;17.52;11.65;;;;;;;12.44;76.47;100742.91;5015093;28;20034;-58
2022/04/15 02:52:45;;;;;;;13.65;9.95;;;;;;;12.45;76.48;100746.44;5020540;28;20483;-58
2022/04/15 02:55:11;;;;;;;13.43;9.77;;;;;;;12.44;76.61;100744.69;5019515;28;20038;-59
2022/04/15 02:57:37;;;;;;;14.98;10.98;;;;;;;12.43;76.74;100746.47;5016286;28;20048;-58
2022/04/15 03:00:04;;;;;;;15.50;10.30;;;;;;;12.38;76.64;100737.81;5024563;28;20480;-59
2022/04/15 03:02:33;;;;;;;15.93;11.00;;;;;;;12.51;76.54;100752.41;5021375;28;20046;-59
2022/04/15 03:04:59;;;;;;;16.75;11.23;;;;;;;12.46;76.38;100749.03;5033951;28;20104;-58
2022/04/15 03:07:25;;;;;;;16.00;10.70;;;;;;;12.41;76.67;100745.66;5020865;28;20056;-58
2022/04/15 03:09:50;;;;;;;18.67;12.25;;;;;;;12.43;76.67;100743.84;5018073;28;20466;-58
2022/04/15 03:12:16;;;;;;;16.63;11.07;;;;;;;12.42;77.04;100744.75;5019281;28;20037;-58
2022/04/15 03:14:42;;;;;;;17.70;11.25;;;;;;;12.53;76.16;100750.63;5027453;28;20037;-59
2022/04/15 03:17:07;;;;;;;14.35;10.07;;;;;;;12.56;76.09;100742.63;5033595;28;20033;-58
2022/04/15 03:19:33;;;;;;;16.85;10.65;;;;;;;12.64;75.75;100742.44;5027995;28;20103;-58
2022/04/15 03:21:58;;;;;;;14.13;10.57;;;;;;;12.67;75.48;100741.50;5032553;28;20424;-59
2022/04/15 03:24:23;;;;;;;17.23;11.15;;;;;;;12.71;75.51;100751.06;5029825;28;20041;-59
2022/04/15 03:26:49;;;;;;;17.23;11.40;;;;;;;12.65;75.46;100738.94;5033412;28;20052;-58
2022/04/15 03:29:15;;;;;;;16.08;11.18;;;;;;;12.74;75.27;100737.81;5032117;28;20025;-58
2022/04/15 03:31:41;;;;;;;15.65;10.57;;;;;;;12.73;75.39;100742.25;5024402;28;20116;-59
2022/04/15 03:34:06;;;;;;;18.02;12.23;;;;;;;12.62;76.29;100738.13;5015315;28;20124;-59
2022/04/15 03:36:32;;;;;;;14.48;10.52;;;;;;;12.62;76.19;100736.34;5014457;28;20500;-58
2022/04/15 03:38:57;;;;;;;13.52;9.50;;;;;;;12.67;75.94;100736.25;5026319;28;20079;-58
2022/04/15 03:41:23;;;;;;;15.60;10.77;;;;;;;12.60;76.61;100729.38;5021275;28;20046;-58
2022/04/15 03:43:50;;;;;;;15.70;10.85;;;;;;;12.55;76.95;100738.25;5017133;28;20121;-58
2022/04/15 03:46:15;;;;;;;16.10;10.80;;;;;;;12.56;76.73;100744.41;5031555;28;20033;-59
2022/04/15 03:48:41;;;;;;;17.00;11.32;;;;;;;12.61;76.61;100741.66;5030860;28;20033;-60
2022/04/15 03:51:08;;;;;;;17.52;10.82;;;;;;;12.61;76.81;100749.56;5014101;28;20038;-62
2022/04/15 03:53:35;;;;;;;16.48;10.80;;;;;;;12.67;76.41;100745.00;5013861;28;20038;-61
2022/04/15 03:56:00;;;;;;;22.23;13.23;;;;;;;12.67;76.48;100752.91;5016251;28;20053;-61
2022/04/15 03:58:26;;;;;;;18.48;11.52;;;;;;;12.74;76.13;100745.75;5031840;28;20042;-61
2022/04/15 04:00:51;;;;;;;17.95;12.10;;;;;;;12.71;76.38;100744.03;5016637;28;20042;-61
2022/04/15 04:03:16;;;;;;;17.48;11.38;;;;;;;12.78;76.02;100745.63;5019092;28;20500;-61
2022/04/15 04:05:42;;;;;;;15.75;10.98;;;;;;;12.78;76.22;100752.66;5013683;28;20176;-61
2022/04/15 04:08:08;;;;;;;16.45;11.73;;;;;;;12.87;75.88;100759.47;5013340;28;20496;-61
2022/04/15 04:10:33;;;;;;;14.63;10.18;;;;;;;12.96;74.99;100757.47;5015895;28;20478;-61
2022/04/15 04:12:59;;;;;;;14.18;9.68;;;;;;;12.93;75.18;100754.06;5022664;28;20120;-60
2022/04/15 04:15:24;;;;;;;15.82;10.45;;;;;;;12.88;75.76;100759.44;5022539;28;20041;-60
2022/04/15 04:17:50;;;;;;;17.08;11.65;;;;;;;12.95;75.57;100755.72;5013920;28;20065;-60
2022/04/15 04:20:17;;;;;;;14.70;11.00;;;;;;;13.04;75.17;100760.75;5016568;28;20042;-61
2022/04/15 04:22:42;;;;;;;13.18;9.95;;;;;;;13.10;74.89;100757.13;5021872;28;20554;-61
2022/04/15 04:25:09;;;;;;;15.70;10.90;;;;;;;13.18;74.39;100762.19;5033004;28;20041;-60
2022/04/15 04:27:36;;;;;;;17.52;11.93;;;;;;;13.26;74.08;100762.91;5027091;28;20068;-60
2022/04/15 04:30:03;;;;;;;21.48;14.73;;;;;;;13.20;74.25;100763.00;5031117;28;20477;-60
2022/04/15 04:32:28;;;;;;;20.02;13.82;;;;;;;13.20;74.36;100765.66;5027735;28;20092;-60
2022/04/15 04:34:54;;;;;;;32.22;19.52;;;;;;;13.13;74.81;100766.75;5023432;28;20116;-60
2022/04/15 04:37:19;;;;;;;28.92;18.45;;;;;;;13.09;74.98;100765.94;5029265;28;20033;-60
2022/04/15 04:39:45;;;;;;;23.65;14.05;;;;;;;13.09;75.39;100770.38;5025819;28;20033;-60
2022/04/15 04:42:10;;;;;;;17.63;13.25;;;;;;;13.10;75.35;100770.31;5022355;28;20053;-60
2022/04/15 04:44:38;;;;;;;19.60;14.18;;;;;;;12.98;76.31;100771.50;5013276;28;20046;-61
2022/04/15 04:47:05;;;;;;;18.63;14.02;;;;;;;12.94;76.61;100761.94;5024615;28;20033;-60
2022/04/15 04:49:31;;;;;;;18.10;13.85;;;;;;;12.94;76.80;100772.47;5013583;28;20400;-60
2022/04/15 04:51:56;;;;;;;17.77;12.60;;;;;;;12.94;77.02;100767.19;5018695;28;20564;-59
2022/04/15 04:54:22;;;;;;;15.57;12.25;;;;;;;12.99;76.59;100775.84;5015526;28;20041;-60
2022/04/15 04:56:47;;;;;;;24.52;13.88;;;;;;;13.03;76.77;100776.66;5028231;28;20038;-60
2022/04/15 04:59:13;;;;;;;23.67;13.48;;;;;;;13.11;76.20;100766.75;5026528;28;20048;-59
2022/04/15 05:01:38;;;;;;;17.55;12.15;;;;;;;13.18;75.83;100770.13;5020142;28;20033;-60
2022/04/15 05:04:04;;;;;;;20.02;13.23;;;;;;;13.23;75.85;100769.13;5027892;28;20128;-60
2022/04/15 05:06:29;;;;;;;21.00;13.55;;;;;;;13.18;76.48;100765.69;5016159;28;20497;-60
2022/04/15 05:08:54;;;;;;;19.70;13.75;;;;;;;13.24;76.03;100769.97;5019628;28;20041;-60
2022/04/15 05:11:20;;;;;;;17.40;11.80;;;;;;;13.33;75.73;100779.44;5024752;28;20046;-60
2022/04/15 05:13:45;;;;;;;20.67;13.52;;;;;;;13.38;75.38;100773.13;5019654;28;20524;-60
2022/04/15 05:16:11;;;;;;;21.25;14.73;;;;;;;13.33;75.71;100775.03;5031170;28;20140;-60
2022/04/15 05:18:36;;;;;;;22.23;14.70;;;;;;;13.28;75.87;100772.53;5027526;28;20124;-60
2022/04/15 05:21:02;;;;;;;22.50;15.13;;;;;;;13.32;75.81;100778.56;5018826;28;20087;-60
2022/04/15 05:23:27;;;;;;;32.35;19.98;;;;;;;13.29;76.30;100782.16;5031683;28;20038;-60
2022/04/15 05:25:53;;;;;;;26.92;16.38;;;;;;;13.35;75.66;100772.34;5019600;28;20413;-59
2022/04/15 05:28:18;;;;;;;24.35;16.50;;;;;;;13.43;75.58;100779.13;5026805;28;20041;-60
2022/04/15 05:30:44;;;;;;;32.60;19.67;;;;;;;13.50;75.21;100783.34;5019212;28;20047;-61
2022/04/15 05:33:09;;;;;;;37.45;22.35;;;;;;;13.64;74.67;100780.31;5030184;28;20029;-60
2022/04/15 05:35:35;;;;;;;35.45;21.50;;;;;;;13.72;74.25;100790.66;5032297;28;20033;-60
2022/04/15 05:38:00;;;;;;;26.80;18.38;;;;;;;13.71;74.23;100788.94;5034562;28;20033;-60
2022/04/15 05:40:27;;;;;;;29.02;18.95;;;;;;;13.74;74.38;100789.72;5031741;28;20148;-60
2022/04/15 05:42:53;;;;;;;30.55;19.92;;;;;;;13.79;74.01;100795.72;5029178;28;20502;-60
2022/04/15 05:45:19;;;;;;;30.13;19.25;;;;;;;13.77;74.36;100786.13;5019329;28;20054;-60
2022/04/15 05:47:44;;;;;;;28.52;18.70;;;;;;;13.72;74.53;100796.84;5016333;28;20087;-60
2022/04/15 05:50:10;;;;;;;28.98;18.25;;;;;;;13.66;74.74;100793.50;5026423;28;20132;-60
2022/04/15 05:52:35;;;;;;;35.58;20.02;;;;;;;13.64;75.09;100788.22;5029860;28;20112;-60
2022/04/15 05:55:01;;;;;;;31.48;19.33;;;;;;;13.68;75.13;100795.16;5025967;28;20026;-60
2022/04/15 05:57:26;;;;;;;28.13;17.98;;;;;;;13.67;75.23;100797.84;5031305;28;20041;-60
2022/04/15 05:59:52;;;;;;;27.00;17.23;;;;;;;13.72;75.12;100798.59;5027878;28;20383;-60
2022/04/15 06:02:17;;;;;;;29.67;18.98;;;;;;;13.64;75.74;100792.66;5026747;28;20481;-59
2022/04/15 06:04:43;;;;;;;31.75;19.83;;;;;;;13.57;76.06;100793.75;5020994;28;20069;-60
2022/04/15 06:07:08;;;;;;;25.42;18.48;;;;;;;13.64;75.80;100805.84;5020638;28;20076;-60
2022/04/15 06:09:34;;;;;;;33.50;21.15;;;;;;;13.63;75.88;100807.63;5027155;28;20108;-60
2022/04/15 06:12:00;;;;;;;31.60;20.35;;;;;;;13.51;76.43;100808.84;5017967;28;20034;-60
2022/04/15 06:14:25;;;;;;;27.48;18.65;;;;;;;13.55;76.67;100807.84;5022228;28;20048;-60
2022/04/15 06:16:52;;;;;;;27.48;17.30;;;;;;;13.61;76.24;100800.69;5029051;28;20033;-60
2022/04/15 06:19:17;;;;;;;24.38;15.65;;;;;;;13.69;75.78;100811.91;5025883;28;20537;-60
2022/04/15 06:21:43;;;;;;;25.42;16.40;;;;;;;13.76;75.56;100808.16;5022565;28;20124;-60
2022/04/15 06:24:10;;;;;;;21.58;15.77;;;;;;;13.85;74.85;100812.34;5022295;28;20037;-60
2022/04/15 06:26:35;;;;;;;25.92;17.90;;;;;;;13.85;74.95;100805.28;5022604;28;20037;-60
2022/04/15 06:29:01;;;;;;;23.80;15.90;;;;;;;13.95;74.96;100805.88;5026650;28;21464;-60
2022/04/15 06:31:26;;;;;;;27.73;17.27;;;;;;;13.98;74.62;100808.44;5027312;28;20038;-60
2022/04/15 06:33:52;;;;;;;27.20;17.13;;;;;;;14.11;74.05;100816.84;5024098;28;20069;-60
2022/04/15 06:36:19;;;;;;;26.27;17.27;;;;;;;14.21;73.54;100823.63;5023090;28;20037;-60
2022/04/15 06:38:45;;;;;;;25.75;18.23;;;;;;;14.21;73.42;100813.91;5027947;28;20080;-59
2022/04/15 06:41:11;;;;;;;22.38;15.65;;;;;;;14.28;73.30;100812.81;5022769;28;20449;-59
2022/04/15 06:43:36;;;;;;;24.63;16.42;;;;;;;14.39;73.19;100814.25;5026112;28;20072;-59
2022/04/15 06:46:03;;;;;;;23.38;16.20;;;;;;;14.53;72.64;100820.88;5026723;28;21363;-60
2022/04/15 06:48:29;;;;;;;25.15;15.93;;;;;;;14.64;72.02;100824.97;5029946;28;20048;-61
2022/04/15 06:50:54;;;;;;;26.13;17.60;;;;;;;14.69;71.68;100820.41;5021671;28;20029;-60
2022/04/15 06:53:23;;;;;;;31.80;17.35;;;;;;;14.73;71.44;100822.06;5024438;28;20401;-60
2022/04/15 06:55:51;;;;;;;25.02;15.65;;;;;;;14.74;71.42;100823.78;5018937;28;20553;-60
2022/04/15 06:58:17;;;;;;;21.80;15.35;;;;;;;14.78;71.10;100822.75;5033497;28;20029;-60
2022/04/15 07:00:43;;;;;;;25.75;16.30;;;;;;;14.80;71.17;100834.13;5034266;28;20044;-60
2022/04/15 07:03:12;;;;;;;22.20;15.75;;;;;;;14.84;70.76;100829.63;5033810;28;20465;-60
2022/04/15 07:05:41;;;;;;;23.88;14.75;;;;;;;14.70;71.33;100830.94;5024337;28;20048;-59
2022/04/15 07:08:10;;;;;;;24.95;16.00;;;;;;;14.74;71.46;100837.00;5026366;28;20120;-60
2022/04/15 07:10:37;;;;;;;21.73;15.18;;;;;;;14.81;71.12;100837.69;5022836;28;20042;-61
2022/04/15 07:13:03;;;;;;;23.95;16.20;;;;;;;14.92;70.74;100841.72;5041064;28;20029;-59
2022/04/15 07:15:28;;;;;;;25.67;16.52;;;;;;;14.85;70.94;100842.81;5034008;28;20037;-60
2022/04/15 07:17:55;;;;;;;25.42;16.77;;;;;;;14.78;71.53;100846.56;5036884;28;20026;-60
2022/04/15 07:20:21;;;;;;;26.67;17.00;;;;;;;14.79;71.57;100845.66;5034023;28;20455;-60
2022/04/15 07:22:46;;;;;;;26.65;18.52;;;;;;;14.86;71.16;100841.91;5030461;28;20120;-60
2022/04/15 07:25:12;;;;;;;23.00;16.05;;;;;;;14.99;71.11;100847.66;5021768;28;20026;-60
2022/04/15 07:27:37;;;;;;;26.10;16.48;;;;;;;15.11;70.41;100849.03;5022890;28;20025;-60
2022/04/15 07:30:04;;;;;;;22.40;15.60;;;;;;;15.14;70.18;100851.59;5016846;28;20389;-60
2022/04/15 07:32:29;;;;;;;22.75;14.77;;;;;;;15.06;70.38;100853.63;5023488;28;20069;-60
2022/04/15 07:34:55;;;;;;;24.02;15.77;;;;;;;15.03;70.41;100857.22;5020660;28;20113;-60
2022/04/15 07:37:22;;;;;;;23.02;15.15;;;;;;;14.99;70.70;100851.16;5023213;28;20121;-60
2022/04/15 07:39:48;;;;;;;25.33;16.02;;;;;;;14.95;70.66;100854.81;5021380;28;20113;-60
2022/04/15 07:42:13;;;;;;;26.20;16.67;;;;;;;14.85;70.82;100858.69;5024977;28;20400;-60
2022/04/15 07:44:40;;;;;;;22.55;14.50;;;;;;;14.90;70.93;100855.91;5023650;28;20041;-60
2022/04/15 07:47:07;;;;;;;23.67;15.50;;;;;;;14.86;71.38;100860.41;5018363;28;20053;-60
2022/04/15 07:49:33;;;;;;;23.15;14.93;;;;;;;14.90;71.10;100862.03;5020827;28;20149;-59
2022/04/15 07:51:59;;;;;;;25.33;16.10;;;;;;;14.98;71.08;100862.66;5023782;28;20040;-60
2022/04/15 07:54:25;;;;;;;21.67;15.45;;;;;;;15.07;70.56;100863.28;5028463;28;20029;-60
2022/04/15 07:56:50;;;;;;;19.48;12.93;;;;;;;14.96;70.16;100868.91;5026920;28;20470;-60
2022/04/15 07:59:15;;;;;;;19.15;12.95;;;;;;;15.08;69.84;100865.00;5031238;28;20048;-60
2022/04/15 08:01:41;;;;;;;24.27;15.65;;;;;;;15.10;69.79;100873.78;5017419;28;20064;-60
2022/04/15 08:04:06;;;;;;;21.42;15.45;;;;;;;15.24;69.39;100872.41;5027674;28;20045;-60
2022/04/15 08:06:32;;;;;;;22.13;13.35;;;;;;;15.40;69.10;100869.22;5023204;28;20040;-60
2022/04/15 08:08:58;;;;;;;18.80;13.20;;;;;;;15.53;68.62;100871.44;5026732;28;20025;-60
2022/04/15 08:11:25;;;;;;;18.27;12.52;;;;;;;15.55;67.79;100873.16;5020143;28;20472;-60
2022/04/15 08:13:51;;;;;;;21.23;12.88;;;;;;;15.49;67.86;100871.59;5022115;28;20042;-59
2022/04/15 08:16:17;;;;;;;17.60;11.35;;;;;;;15.52;67.56;100876.78;5013885;28;20037;-60
2022/04/15 08:18:43;;;;;;;16.73;10.98;;;;;;;15.55;67.22;100876.66;5031266;28;20083;-60
2022/04/15 08:21:09;;;;;;;18.00;11.55;;;;;;;15.56;67.24;100882.81;5033478;28;20116;-59
2022/04/15 08:23:34;;;;;;;23.00;14.60;;;;;;;15.26;68.35;100885.59;5028786;28;20049;-59
2022/04/15 08:25:59;;;;;;;23.02;13.60;;;;;;;15.11;68.76;100886.09;5014626;28;20041;-59
2022/04/15 08:28:25;;;;;;;25.85;15.30;;;;;;;14.60;69.32;100905.31;5032444;28;20034;-60
2022/04/15 08:30:50;;;;;;;23.33;13.52;;;;;;;14.43;69.62;100897.84;5051114;28;20037;-60
2022/04/15 08:33:16;;;;;;;21.73;12.48;;;;;;;14.27;69.31;100903.56;5039706;28;20036;-59
2022/04/15 08:35:41;;;;;;;24.08;13.13;;;;;;;14.16;69.03;100910.06;5032155;28;20044;-59
2022/04/15 08:38:07;;;;;;;25.85;13.57;;;;;;;14.19;68.61;100907.34;5032808;28;20381;-60
2022/04/15 08:40:37;;;;;;;26.80;14.73;;;;;;;13.92;68.24;100912.47;5033199;28;20132;-59
2022/04/15 08:43:05;;;;;;;27.75;15.18;;;;;;;13.87;68.31;100914.38;5033742;28;20041;-59
2022/04/15 08:45:30;;;;;;;22.92;13.80;;;;;;;13.81;68.65;100914.56;5032356;28;20036;-59
2022/04/15 08:47:59;;;;;;;24.20;13.32;;;;;;;13.81;68.39;100919.84;5036947;28;20038;-59
2022/04/15 08:50:26;;;;;;;21.75;12.95;;;;;;;13.83;68.19;100925.06;5037029;28;20033;-59
2022/04/15 08:52:53;;;;;;;22.48;12.77;;;;;;;13.84;67.34;100919.72;5036274;28;20037;-59
2022/04/15 08:55:21;;;;;;;21.80;13.07;;;;;;;13.78;68.12;100933.13;5037868;28;20452;-59
2022/04/15 08:57:48;;;;;;;21.83;12.93;;;;;;;13.79;67.83;100929.56;5037181;28;20033;-59
2022/04/15 09:00:14;;;;;;;19.80;12.02;;;;;;;13.89;67.48;100932.84;5033658;28;20045;-59
2022/04/15 09:02:39;;;;;;;19.45;12.95;;;;;;;13.80;66.82;100934.81;5032876;28;20037;-60
2022/04/15 09:05:06;;;;;;;19.65;13.35;;;;;;;13.55;67.07;100939.84;5017899;28;20045;-59
2022/04/15 09:07:34;;;;;;;18.70;11.93;;;;;;;13.54;67.40;100937.25;5033290;28;20076;-59
2022/04/15 09:10:01;;;;;;;19.67;13.15;;;;;;;13.76;66.90;100940.19;5025642;28;20045;-59
2022/04/15 09:12:35;;;;;;;20.48;12.38;;;;;;;13.90;66.58;100937.22;5036244;28;20121;-59
2022/04/15 09:15:11;;;;;;;22.02;14.13;;;;;;;13.93;65.78;100945.94;5036270;28;20045;-59
2022/04/15 09:17:42;;;;;;;20.38;13.75;;;;;;;13.83;65.65;100944.41;5025658;28;20031;-60
2022/04/15 09:20:11;;;;;;;22.95;14.60;;;;;;;13.99;65.51;100939.59;5029629;28;20465;-60
2022/04/15 09:22:37;;;;;;;21.58;14.55;;;;;;;13.86;65.50;100941.72;5026925;28;20045;-59
2022/04/15 09:25:03;;;;;;;23.45;15.82;;;;;;;13.81;66.15;100946.25;5035917;28;20409;-59
2022/04/15 09:27:29;;;;;;;26.00;17.40;;;;;;;13.83;66.08;100954.13;5029878;28;20033;-59
2022/04/15 09:29:54;;;;;;;32.28;22.17;;;;;;;13.69;66.38;100949.22;5024662;28;20034;-59
2022/04/15 09:32:22;;;;;;;27.92;19.38;;;;;;;13.62;66.48;100948.50;5028686;28;20814;-58
2022/04/15 09:35:04;;;;;;;21.83;16.45;;;;;;;13.67;66.41;100951.00;5027579;28;20040;-59
2022/04/15 09:37:34;;;;;;;20.15;15.23;;;;;;;13.39;66.97;100949.03;5014880;28;20477;-58
2022/04/15 09:40:13;;;;;;;21.02;15.50;;;;;;;13.33;67.10;100959.78;5027708;28;20116;-59
2022/04/15 09:42:52;;;;;;;18.92;14.70;;;;;;;13.26;66.90;100958.19;5026252;28;20040;-59
2022/04/15 09:45:26;;;;;;;17.27;12.93;;;;;;;13.23;66.96;100964.38;5028159;28;20116;-58
2022/04/15 09:47:57;;;;;;;16.35;11.88;;;;;;;13.09;66.69;100968.22;5027889;28;20041;-59
2022/04/15 09:50:22;;;;;;;16.05;12.77;;;;;;;12.93;67.12;100987.03;5026924;28;20052;-58
2022/04/15 09:52:54;;;;;;;17.20;14.40;;;;;;;12.55;67.30;100967.59;5023573;28;20802;-59
2022/04/15 09:55:21;;;;;;;22.40;17.42;;;;;;;12.35;67.27;100977.66;5025276;28;20025;-59
2022/04/15 09:57:47;;;;;;;30.73;20.85;;;;;;;12.07;67.90;100978.19;5024631;28;20486;-59
2022/04/15 10:00:15;;;;;;;28.45;20.30;;;;;;;11.93;68.55;100979.31;5024818;28;20393;-59
2022/04/15 10:02:42;;;;;;;31.13;22.13;;;;;;;11.84;68.87;100977.72;5026554;28;20447;-59
2022/04/15 10:05:08;;;;;;;28.63;21.08;;;;;;;12.06;68.50;100989.63;5030449;28;20143;-59
2022/04/15 10:07:34;;;;;;;35.20;23.05;;;;;;;12.21;67.85;100980.56;5024034;28;20046;-59
2022/04/15 10:10:01;;;;;;;33.10;23.40;;;;;;;12.23;67.59;100984.03;5027153;28;20045;-59
2022/04/15 10:12:29;;;;;;;34.45;23.40;;;;;;;12.34;67.29;100989.13;5028106;28;20064;-59
2022/04/15 10:14:55;;;;;;;33.88;23.23;;;;;;;12.10;67.90;100994.84;5020511;28;20826;-59
2022/04/15 10:17:23;;;;;;;40.38;27.42;;;;;;;11.90;68.33;100995.19;5027879;28;20034;-59
2022/04/15 10:19:49;;;;;;;32.72;23.83;;;;;;;12.05;68.11;100992.28;5023616;28;20362;-59
2022/04/15 10:22:16;;;;;;;32.03;20.63;;;;;;;12.05;68.04;101008.09;5029496;28;20025;-59
2022/04/15 10:24:41;;;;;;;29.35;19.65;;;;;;;12.01;68.05;101009.91;5029499;28;20046;-59
2022/04/15 10:27:11;;;;;;;31.48;21.35;;;;;;;11.86;69.08;101004.91;5024869;28;20484;-59
2022/04/15 10:29:36;;;;;;;25.42;18.80;;;;;;;11.95;68.84;101011.78;5034618;28;20065;-59
2022/04/15 10:32:13;;;;;;;26.98;19.65;;;;;;;11.51;69.38;101023.88;5035362;28;20049;-58
2022/04/15 10:34:46;;;;;;;25.23;17.85;;;;;;;11.53;69.80;101025.59;5035380;28;20033;-59
2022/04/15 10:37:12;;;;;;;25.50;18.27;;;;;;;11.37;70.53;101025.81;5033626;28;20532;-59
2022/04/15 10:39:47;;;;;;;28.88;19.45;;;;;;;11.35;70.46;101024.09;5033717;28;20138;-58
2022/04/15 10:42:22;;;;;;;30.02;20.05;;;;;;;11.17;70.89;101029.63;5027093;28;20046;-58
2022/04/15 10:44:48;;;;;;;29.88;20.95;;;;;;;11.00;71.40;101042.97;5015267;28;20041;-59
2022/04/15 10:47:16;;;;;;;35.65;22.33;;;;;;;10.71;71.88;101045.97;5015411;28;20038;-59
2022/04/15 10:50:03;;;;;;;35.03;22.27;;;;;;;10.82;71.77;101044.09;5015228;28;20025;-59
2022/04/15 10:52:30;;;;;;;39.08;24.35;;;;;;;10.56;72.06;101040.88;5015606;28;20113;-59
2022/04/15 10:55:07;;;;;;;37.53;24.65;;;;;;;10.66;71.87;101046.94;5015134;28;20038;-59
2022/04/15 10:57:40;;;;;;;48.55;29.48;;;;;;;10.44;72.70;101043.66;5015108;28;20030;-59
2022/04/15 11:03:04;;;;;;;48.13;28.95;;;;;;;10.17;74.19;101050.00;5015279;28;20045;-59
2022/04/15 11:05:32;;;;;;;50.28;29.00;;;;;;;10.27;73.62;101054.34;5014676;28;20038;-58
2022/04/15 11:08:04;;;;;;;45.78;28.15;;;;;;;10.09;73.85;101060.56;5014895;28;20034;-58
2022/04/15 11:11:07;;;;;;;46.33;27.00;;;;;;;10.11;73.62;101059.69;5014429;28;20493;-57